• Join FlightAware (Why Join?)
  • Login
  • US Flag 
06:18AM EDT


 

Airport Tracker/Info


-or-


 

Live Flight TrackerFlight Track Log ✈ N812NW ✈ 21-Apr-2013 ✈ KJFK - LEBL / BCN

Flight Track Log - Related Links

Times and Time Zones

All times are in EDT time to prevent confusion due to time zone crossing. See the N812NW flight status page for this flight to view local times or setup timezone preferences in your user account.

Time Position Orientation Groundspeed Altitude Reporting Facility
EDT Latitude Longitude Course Direction KTS MPH feet Rate Location/Type
08:14PM 40.6210 -73.7860 210° Southwest 158 182 100  Level FlightAware
08:15PM 40.6050 -73.7970 208° Southwest 167 192 1,000 1,620 Climbing FlightAware
08:15PM 40.5940 -73.8010 195° South 180 207 1,200 780 Climbing FlightAware
08:15PM 40.5700 -73.7800 146° Southeast 217 250 1,600 1,200 Climbing FlightAware
08:16PM 40.5530 -73.7410 120° Southeast 250 288 2,400 2,160 Climbing FlightAware
08:16PM 40.5390 -73.7080 119° Southeast 254 292 3,600 2,040 Climbing FlightAware
08:17PM 40.5220 -73.6700 120° Southeast 255 293 4,300 780 Climbing FlightAware
08:17PM 40.5040 -73.6290 120° Southeast 257 296 4,400 120 Climbing FlightAware
08:17PM 40.4925 -73.6033 120° Southeast 257 296 4,400  Level FlightAware ADS-B
08:18PM 40.4767 -73.5686 121° Southeast 259 298 4,400  Level FlightAware ADS-B
08:18PM 40.4644 -73.5418 121° Southeast 257 296 4,400 420 Level FlightAware ADS-B
08:19PM 40.4410 -73.4790 116° Southeast 249 287 4,900 960 Climbing FlightAware
08:19PM 40.4401 -73.4653 95° East 250 288 5,300 3,000 Climbing FlightAware ADS-B
08:19PM 40.4372 -73.4360 97° East 255 293 6,200 2,760 Climbing FlightAware ADS-B
08:20PM 40.4337 -73.4053 99° East 261 300 7,100 2,580 Climbing FlightAware ADS-B
08:20PM 40.4306 -73.3788 99° East 266 306 7,800 2,220 Climbing FlightAware ADS-B
08:20PM 40.4279 -73.3546 98° East 272 313 8,300 2,040 Climbing FlightAware ADS-B
08:21PM 40.4247 -73.3258 98° East 280 322 8,900 2,340 Climbing FlightAware ADS-B
08:21PM 40.4218 -73.2993 98° East 282 325 9,600 1,680 Climbing FlightAware ADS-B
08:21PM 40.4187 -73.2715 98° East 300 345 9,800 900 Climbing FlightAware ADS-B
08:22PM 40.4123 -73.2131 98° East 332 382 10,300 960 Climbing FlightAware ADS-B
08:22PM 40.4051 -73.1479 98° East 365 420 10,800 1,500 Climbing FlightAware ADS-B
08:23PM 40.3965 -73.0714 98° East 377 434 11,900 1,860 Climbing FlightAware ADS-B
08:23PM 40.3880 -72.9890 98° East 391 450 13,100 1,920 Climbing FlightAware
08:24PM 40.3950 -72.9400 79° East 395 455 13,800 2,100 Climbing FlightAware
08:24PM 40.4076 -72.8888 72° East 391 450 14,500 1,800 Climbing FlightAware ADS-B
08:25PM 40.4248 -72.8139 73° East 391 450 15,400 1,800 Climbing FlightAware ADS-B
08:25PM 40.4288 -72.7958 74° East 413 475 15,700 1,920 Climbing FlightAware ADS-B
08:25PM 40.4468 -72.7154 74° East 420 483 16,700 1,740 Climbing FlightAware ADS-B
08:26PM 40.4654 -72.6318 74° East 421 484 17,700 1,560 Climbing FlightAware ADS-B
08:26PM 40.4827 -72.5547 74° East 435 501 18,400 1,200 Climbing FlightAware ADS-B
08:27PM 40.5005 -72.4745 74° East 449 517 19,000 1,260 Climbing FlightAware ADS-B
08:27PM 40.5204 -72.3849 74° East 459 528 19,800 1,380 Climbing FlightAware ADS-B
08:28PM 40.5400 -72.2960 74° East 464 534 20,600 1,440 Climbing FlightAware ADS-B
08:29PM 40.5651 -72.1816 74° East 472 543 21,600 1,260 Climbing FlightAware ADS-B
08:29PM 40.5870 -72.0800 74° East 481 554 22,300 1,080 Climbing FlightAware
08:30PM 40.6110 -71.9700 74° East 489 563 23,100 1,260 Climbing FlightAware
08:31PM 40.6400 -71.8370 74° East 495 570 24,100 1,320 Climbing FlightAware
08:31PM 40.6590 -71.7490 74° East 499 574 24,800 840 Climbing FlightAware
08:32PM 40.6960 -71.5780 74° East 503 579 25,400 300 Climbing FlightAware
08:33PM 40.7230 -71.4530 74° East 503 579 25,400 780 Level FlightAware
08:34PM 40.7530 -71.3080 75° East 525 604 26,600 900 Climbing FlightAware
08:34PM 40.7760 -71.2030 74° East 525 604 26,600  Level FlightAware
08:35PM 40.7990 -71.0980 74° East 525 604 26,600  Level FlightAware
08:36PM 40.8270 -70.9670 74° East 525 604 26,600 1,860 Level FlightAware
08:36PM 40.9100 -70.8400 49° Northeast 543 625 29,100 2,160 Climbing FlightAware
08:37PM 40.9790 -70.7290 51° Northeast 543 625 29,300 780 Climbing FlightAware
08:38PM 41.0610 -70.5960 51° Northeast 549 632 30,400 1,080 Climbing FlightAware
08:39PM 41.1300 -70.4840 51° Northeast 550 633 31,000 480 Climbing FlightAware
08:39PM 41.2070 -70.3580 51° Northeast 558 642 31,200 420 Climbing FlightAware
08:40PM 41.2890 -70.2240 51° Northeast 559 643 31,700 960 Climbing FlightAware
08:41PM 41.3550 -70.1150 51° Northeast 561 646 32,700 900 Climbing FlightAware
08:42PM 41.4220 -70.0050 51° Northeast 561 646 32,900 720 Climbing FlightAware
08:42PM 41.4970 -69.8800 51° Northeast 555 639 33,800 300 Climbing FlightAware
08:44PM 41.6300 -69.6520 52° Northeast 555 639 33,700 -60 Descending FlightAware
08:45PM 41.6840 -69.5600 52° Northeast 555 639 33,700  Level FlightAware
08:45PM 41.7370 -69.4680 52° Northeast 555 639 33,700 900 Level FlightAware
08:46PM 41.8610 -69.2690 50° Northeast 551 634 35,000 900 Climbing FlightAware
08:47PM 41.9290 -69.1540 51° Northeast 552 635 35,000  Level FlightAware
08:47PM 41.9900 -69.0490 52° Northeast 554 638 35,000  Level FlightAware
08:48PM 42.0570 -68.9360 51° Northeast 553 636 35,000  Level FlightAware
08:49PM 42.1290 -68.8120 52° Northeast 554 638 35,000  Level FlightAware
08:50PM 42.2000 -68.6900 52° Northeast 555 639 35,000  Level FlightAware
08:51PM 42.2840 -68.5440 52° Northeast 559 643 35,000  Level FlightAware
08:51PM 42.3600 -68.4110 52° Northeast 559 643 35,000  Level FlightAware
08:52PM 42.4180 -68.3100 52° Northeast 559 643 35,000  Level FlightAware
08:53PM 42.4870 -68.1880 52° Northeast 559 643 35,000  Level FlightAware
08:53PM 42.5520 -68.0730 52° Northeast 558 642 35,000  Level FlightAware
08:54PM 42.6300 -67.9380 52° Northeast 562 647 35,000  Level FlightAware
08:55PM 42.6840 -67.8430 52° Northeast 562 647 35,000  Level FlightAware
08:55PM 42.7250 -67.7720 52° Northeast 562 647 35,000  Level FlightAware
08:56PM 42.7790 -67.6770 52° Northeast 562 647 35,000  Level FlightAware
08:57PM 42.8470 -67.5590 52° Northeast 562 647 35,000  Level FlightAware
08:58PM 42.9020 -67.4640 52° Northeast 562 647 35,000  Level FlightAware
08:58PM 42.9560 -67.3680 52° Northeast 562 647 35,000  Level FlightAware
08:59PM 43.0800 -67.1270 55° Northeast 562 647 35,000  Level FlightAware
09:00PM 43.1810 -66.9390 54° Northeast 557 641 35,000  Level FlightAware
09:01PM 43.2330 -66.8420 54° Northeast 557 641 35,000  Level FlightAware
09:02PM 43.3060 -66.6650 60° Northeast 566 651 35,000  Level FlightAware
09:02PM 43.3540 -66.5620 57° Northeast 565 650 35,000  Level FlightAware
09:03PM 43.4250 -66.4080 58° Northeast 559 643 35,000  Level FlightAware
09:04PM 43.4810 -66.2850 58° Northeast 561 646 35,000  Level FlightAware
09:04PM 43.5360 -66.1660 57° Northeast 562 647 35,000  Level FlightAware
09:05PM 43.5990 -66.0270 58° Northeast 564 649 35,000  Level FlightAware
09:06PM 43.6560 -65.9020 58° Northeast 563 648 35,000  Level FlightAware
09:06PM 43.7190 -65.7610 58° Northeast 564 649 35,000  Level FlightAware
09:07PM 43.7750 -65.6360 58° Northeast 564 649 35,000  Level FlightAware
09:08PM 43.8380 -65.4960 58° Northeast 565 650 35,000  Level FlightAware
09:09PM 43.8940 -65.3690 59° Northeast 567 652 35,000  Level FlightAware
09:09PM 43.9420 -65.2620 58° Northeast 566 651 35,000  Level FlightAware
09:10PM 43.9980 -65.1350 58° Northeast 567 652 35,000  Level FlightAware
09:10PM 44.0520 -65.0120 59° Northeast 566 651 35,000  Level FlightAware
09:11PM 44.1130 -64.8730 59° Northeast 566 651 35,000  Level FlightAware
09:12PM 44.1660 -64.7510 59° Northeast 568 654 35,000  Level FlightAware
09:13PM 44.2290 -64.6040 59° Northeast 570 656 35,000  Level FlightAware
09:13PM 44.2850 -64.4750 59° Northeast 570 656 35,000  Level FlightAware
09:14PM 44.3460 -64.3330 59° Northeast 574 661 35,000  Level FlightAware
09:15PM 44.4000 -64.2080 59° Northeast 577 664 35,000  Level FlightAware
09:15PM 44.4570 -64.0730 59° Northeast 580 667 35,000  Level FlightAware
09:16PM 44.5170 -63.9310 59° Northeast 584 672 35,000  Level FlightAware
09:17PM 44.5710 -63.8020 60° Northeast 585 673 35,000  Level FlightAware
09:18PM 44.6330 -63.6540 59° Northeast 585 673 35,000  Level FlightAware
09:18PM 44.6820 -63.5380 59° Northeast 582 670 35,000  Level FlightAware
09:19PM 44.7420 -63.3930 60° Northeast 582 670 35,000  Level FlightAware
09:20PM 44.8010 -63.2490 60° Northeast 581 669 35,000  Level FlightAware
09:20PM 44.8590 -63.1090 60° Northeast 581 669 35,000  Level FlightAware
09:21PM 44.9020 -63.0040 60° Northeast 580 667 35,000  Level FlightAware
09:22PM 44.9540 -62.8760 60° Northeast 580 667 35,000  Level FlightAware
09:22PM 45.0000 -62.7640 60° Northeast 580 667 35,000  Level FlightAware
09:23PM 45.0570 -62.6240 60° Northeast 580 667 35,000  Level FlightAware
09:24PM 45.1020 -62.5120 60° Northeast 580 667 35,000  Level FlightAware
09:24PM 45.1480 -62.4000 60° Northeast 580 667 35,000  Level FlightAware
09:25PM 45.1930 -62.2880 60° Northeast 580 667 35,000  Level FlightAware
09:26PM 45.2390 -62.1760 60° Northeast 580 667 35,000  Level FlightAware
09:27PM 45.2960 -62.0360 60° Northeast 580 667 35,000  Level FlightAware
09:27PM 45.3420 -61.9230 60° Northeast 580 667 35,000  Level FlightAware
09:28PM 45.3870 -61.8110 60° Northeast 580 667 35,000  Level FlightAware
09:29PM 45.4330 -61.6980 60° Northeast 580 667 35,000  Level FlightAware
09:29PM 45.4780 -61.5860 60° Northeast 580 667 35,000  Level FlightAware
09:30PM 45.5350 -61.4450 60° Northeast 580 667 35,000  Level FlightAware
09:31PM 45.6870 -61.0130 63° Northeast 579 666 35,000  Level FlightAware
09:32PM 45.7450 -60.8580 62° Northeast 577 664 35,000  Level FlightAware
09:32PM 45.7930 -60.7310 62° Northeast 576 663 35,000  Level FlightAware
09:33PM 45.8470 -60.5880 61° Northeast 576 663 35,000  Level FlightAware
09:34PM 45.9020 -60.4400 62° Northeast 576 663 35,000  Level FlightAware
09:34PM 45.9520 -60.3040 62° Northeast 578 665 35,000  Level FlightAware
09:35PM 46.0100 -60.1490 62° Northeast 578 665 35,000  Level FlightAware
09:36PM 46.0600 -60.0120 62° Northeast 579 666 35,000  Level FlightAware
09:36PM 46.1100 -59.8760 62° Northeast 579 666 35,000  Level FlightAware
09:37PM 46.1630 -59.7280 63° Northeast 578 665 35,000  Level FlightAware
09:38PM 46.2130 -59.5920 62° Northeast 576 663 35,000  Level FlightAware
09:39PM 46.2700 -59.4330 63° Northeast 576 663 35,000  Level FlightAware
09:39PM 46.3180 -59.2970 63° Northeast 577 664 35,000  Level FlightAware
09:40PM 46.3730 -59.1440 62° Northeast 577 664 35,000  Level FlightAware
09:41PM 46.4210 -59.0090 63° Northeast 576 663 35,000  Level FlightAware
09:41PM 46.4690 -58.8710 63° Northeast 576 663 35,000  Level FlightAware
09:42PM 46.5250 -58.7110 63° Northeast 576 663 35,000  Level FlightAware
09:43PM 46.5740 -58.5720 63° Northeast 577 664 35,000  Level FlightAware
09:43PM 46.6250 -58.4240 63° Northeast 578 665 35,000  Level FlightAware
09:44PM 46.6730 -58.2840 63° Northeast 577 664 35,000  Level FlightAware
09:45PM 46.7210 -58.1440 63° Northeast 576 663 35,000  Level FlightAware
09:46PM 46.7750 -57.9850 64° Northeast 576 663 35,000  Level FlightAware
09:46PM 46.8350 -57.8110 63° Northeast 576 663 35,000  Level FlightAware
09:47PM 46.8760 -57.6930 63° Northeast 576 663 35,000  Level FlightAware
09:48PM 46.9170 -57.5740 63° Northeast 576 663 35,000  Level FlightAware
09:48PM 46.9580 -57.4560 63° Northeast 576 663 35,000  Level FlightAware
09:49PM 47.0100 -57.3080 63° Northeast 576 663 35,000 60 Level FlightAware
09:50PM 47.0780 -57.0700 67° East 578 665 35,100 60 Climbing FlightAware
09:51PM 47.1150 -56.9520 65° Northeast 578 665 35,100 780 Level FlightAware
09:52PM 47.1910 -56.7050 66° East 575 662 36,400 900 Climbing FlightAware
09:52PM 47.2340 -56.5670 65° Northeast 579 666 36,700 420 Climbing FlightAware
09:53PM 47.2800 -56.4170 66° East 580 667 37,000 180 Climbing FlightAware
09:54PM 47.3260 -56.2690 65° Northeast 581 669 37,000  Level FlightAware
09:54PM 47.3650 -56.1460 65° Northeast 581 669 37,000  Level FlightAware
09:55PM 47.4030 -56.0240 65° Northeast 581 669 37,000  Level FlightAware
09:56PM 47.4420 -55.9020 65° Northeast 581 669 37,000  Level FlightAware
09:56PM 47.4810 -55.7790 65° Northeast 581 669 37,000  Level FlightAware
09:57PM 47.5570 -55.4920 68° East 579 666 37,000  Level FlightAware
09:58PM 47.6010 -55.3440 66° East 579 666 37,000  Level FlightAware
09:59PM 47.6470 -55.1850 67° East 578 665 37,000  Level FlightAware
09:59PM 47.6890 -55.0410 67° East 578 665 37,000  Level FlightAware
10:00PM 47.7310 -54.8940 67° East 577 664 37,000  Level FlightAware
10:00PM 47.7620 -54.7860 67° East 577 664 37,000  Level FlightAware
10:01PM 47.8040 -54.6410 67° East 576 663 37,000  Level FlightAware
10:02PM 47.8520 -54.4710 67° East 578 665 37,000  Level FlightAware
10:03PM 47.8930 -54.3250 67° East 579 666 37,000  Level FlightAware
10:03PM 47.9340 -54.1780 67° East 577 664 37,000  Level FlightAware
10:04PM 47.9800 -54.0140 67° East 576 663 37,000  Level FlightAware
10:05PM 48.0190 -53.8720 68° East 573 659 37,000  Level FlightAware
10:05PM 48.0660 -53.7010 68° East 573 659 37,000  Level FlightAware
10:06PM 48.1050 -53.5570 68° East 573 659 37,000  Level FlightAware
10:07PM 48.1490 -53.3940 68° East 568 654 37,000  Level FlightAware
10:07PM 48.1880 -53.2480 68° East 567 652 37,000  Level FlightAware
10:08PM 48.2260 -53.1050 68° East 568 654 37,000  Level FlightAware
10:09PM 48.2720 -52.9350 68° East 567 652 37,000  Level FlightAware
10:10PM 48.3100 -52.7880 69° East 568 654 37,000  Level FlightAware
10:10PM 48.3480 -52.6440 68° East 570 656 37,000  Level FlightAware
10:11PM 48.3910 -52.4780 69° East 570 656 37,000  Level FlightAware
10:12PM 48.4290 -52.3330 68° East 573 659 37,000  Level FlightAware
10:12PM 48.4730 -52.1610 69° East 576 663 37,000  Level FlightAware
10:13PM 48.5260 -51.9550 69° East 574 661 37,000  Level FlightAware
10:14PM 48.5690 -51.7840 69° East 573 659 37,000  Level FlightAware
10:15PM 48.6340 -51.5240 69° East 575 662 37,000  Level FlightAware
10:16PM 48.6920 -51.2850 70° East 574 661 37,000  Level FlightAware
10:17PM 48.7330 -51.1190 69° East 572 658 37,000  Level FlightAware
10:18PM 48.7840 -50.9130 69° East 573 659 37,000  Level FlightAware
10:19PM 48.8210 -50.7590 70° East 574 661 37,000  Level FlightAware
10:19PM 48.8600 -50.5950 70° East 573 659 37,000  Level FlightAware
10:20PM 48.9090 -50.3860 70° East 572 658 37,000  Level FlightAware
10:21PM 48.9450 -50.2340 70° East 571 657 37,000  Level FlightAware
10:22PM 48.9850 -50.0650 70° East 571 657 37,000  Level FlightAware
10:22PM 49.0160 -49.9360 70° East 571 657 37,000  Level FlightAware
10:23PM 49.0470 -49.8080 70° East 571 657 37,000  Level FlightAware
10:24PM 49.0770 -49.6790 70° East 571 657 37,000  Level FlightAware
10:24PM 49.1080 -49.5500 70° East 571 657 37,000  Level FlightAware
10:25PM 49.1460 -49.3890 70° East 571 657 37,000  Level FlightAware
10:26PM 49.1770 -49.2600 70° East 571 657 37,000  Level FlightAware
10:27PM 49.2080 -49.1300 70° East 571 657 37,000  Level FlightAware
10:27PM 49.2380 -49.0010 70° East 571 657 37,000  Level FlightAware
10:28PM 49.2770 -48.8400 70° East 571 657 37,000  Level FlightAware
10:29PM 49.3080 -48.7100 70° East 571 657 37,000  Level FlightAware
10:29PM 49.3380 -48.5810 70° East 571 657 37,000  Level FlightAware
10:30PM 49.3690 -48.4510 70° East 571 657 37,000  Level FlightAware
10:31PM 49.4000 -48.3210 70° East 571 657 37,000  Level FlightAware
10:32PM 49.5000 -47.7667 70° East 570 656 37,000  Level Gander Center
10:32PM 49.5333 -47.6833 58° Northeast 560 644 37,000  Level Gander Center
10:33PM 49.5667 -47.5167 73° East 560 644 37,000  Level Gander Center
10:34PM 49.6000 -47.3167 76° East 560 644 37,000  Level Gander Center
10:34PM 49.6333 -47.2333 58° Northeast 560 644 37,000  Level Gander Center
10:37PM 49.7243 -46.8270 71° East  Level FlightAware Approximate
10:44PM 50.0340 -45.3811 71° East  Level FlightAware Approximate
10:45PM 50.0768 -45.1730 72° East  Level FlightAware Approximate
10:46PM 50.1192 -44.9646 72° East  Level FlightAware Approximate
10:47PM 50.1612 -44.7558 72° East  Level FlightAware Approximate
10:48PM 50.2029 -44.5466 73° East  Level FlightAware Approximate
10:49PM 50.2441 -44.3371 73° East  Level FlightAware Approximate
10:50PM 50.2850 -44.1272 73° East  Level FlightAware Approximate
10:51PM 50.3255 -43.9170 73° East  Level FlightAware Approximate
10:52PM 50.3657 -43.7063 73° East  Level FlightAware Approximate
10:53PM 50.4054 -43.4954 73° East  Level FlightAware Approximate
10:54PM 50.4448 -43.2841 74° East  Level FlightAware Approximate
10:55PM 50.4838 -43.0724 74° East  Level FlightAware Approximate
10:56PM 50.5224 -42.8604 74° East  Level FlightAware Approximate
10:57PM 50.5606 -42.6480 74° East  Level FlightAware Approximate
10:58PM 50.5984 -42.4353 74° East  Level FlightAware Approximate
10:59PM 50.6358 -42.2223 74° East  Level FlightAware Approximate
11:00PM 50.6729 -42.0089 75° East  Level FlightAware Approximate
11:01PM 50.7096 -41.7952 75° East  Level FlightAware Approximate
11:02PM 50.7458 -41.5811 75° East  Level FlightAware Approximate
11:03PM 50.7817 -41.3667 75° East  Level FlightAware Approximate
11:04PM 50.8172 -41.1520 75° East  Level FlightAware Approximate
11:05PM 50.8523 -40.9370 75° East  Level FlightAware Approximate
11:06PM 50.8870 -40.7216 76° East  Level FlightAware Approximate
11:07PM 50.9213 -40.5060 76° East  Level FlightAware Approximate
11:08PM 50.9552 -40.2900 76° East  Level FlightAware Approximate
11:09PM 50.9887 -40.0737 76° East  Level FlightAware Approximate
11:10PM 51.0062 -39.8531 86° East  Level FlightAware Approximate
11:11PM 51.0152 -39.6307 86° East  Level FlightAware Approximate
11:12PM 51.0238 -39.4081 86° East  Level FlightAware Approximate
11:13PM 51.0320 -39.1855 87° East  Level FlightAware Approximate
11:14PM 51.0397 -38.9627 87° East  Level FlightAware Approximate
11:15PM 51.0471 -38.7399 87° East  Level FlightAware Approximate
11:16PM 51.0540 -38.5171 87° East  Level FlightAware Approximate
11:17PM 51.0605 -38.2942 87° East  Level FlightAware Approximate
11:18PM 51.0665 -38.0712 87° East  Level FlightAware Approximate
11:19PM 51.0722 -37.8481 88° East  Level FlightAware Approximate
11:20PM 51.0774 -37.6251 88° East  Level FlightAware Approximate
11:21PM 51.0822 -37.4019 88° East  Level FlightAware Approximate
11:22PM 51.0865 -37.1787 88° East  Level FlightAware Approximate
11:23PM 51.0905 -36.9555 88° East  Level FlightAware Approximate
11:24PM 51.0940 -36.7323 88° East  Level FlightAware Approximate
11:25PM 51.0971 -36.5090 89° East  Level FlightAware Approximate
11:26PM 51.0997 -36.2856 89° East  Level FlightAware Approximate
11:27PM 51.1020 -36.0623 89° East  Level FlightAware Approximate
11:28PM 51.1038 -35.8390 89° East  Level FlightAware Approximate
11:29PM 51.1052 -35.6156 89° East  Level FlightAware Approximate
11:30PM 51.1061 -35.3922 90° East  Level FlightAware Approximate
11:31PM 51.1067 -35.1688 90° East  Level FlightAware Approximate
11:32PM 51.1068 -34.9454 90° East  Level FlightAware Approximate
11:33PM 51.1065 -34.7220 90° East  Level FlightAware Approximate
11:34PM 51.1057 -34.4986 90° East  Level FlightAware Approximate
11:35PM 51.1045 -34.2752 90° East  Level FlightAware Approximate
11:36PM 51.1030 -34.0518 91° East  Level FlightAware Approximate
11:37PM 51.1009 -33.8285 91° East  Level FlightAware Approximate
11:38PM 51.0985 -33.6052 91° East  Level FlightAware Approximate
11:39PM 51.0956 -33.3819 91° East  Level FlightAware Approximate
11:40PM 51.0923 -33.1586 91° East  Level FlightAware Approximate
11:41PM 51.0886 -32.9353 91° East  Level FlightAware Approximate
11:42PM 51.0845 -32.7121 92° East  Level FlightAware Approximate
11:43PM 51.0799 -32.4890 92° East  Level FlightAware Approximate
11:44PM 51.0749 -32.2659 92° East  Level FlightAware Approximate
11:45PM 51.0695 -32.0428 92° East  Level FlightAware Approximate
11:46PM 51.0636 -31.8198 92° East  Level FlightAware Approximate
11:47PM 51.0574 -31.5968 92° East  Level FlightAware Approximate
11:48PM 51.0507 -31.3739 93° East  Level FlightAware Approximate
11:49PM 51.0435 -31.1511 93° East  Level FlightAware Approximate
11:50PM 51.0360 -30.9284 93° East  Level FlightAware Approximate
11:51PM 51.0280 -30.7057 93° East  Level FlightAware Approximate
11:52PM 51.0197 -30.4831 93° East  Level FlightAware Approximate
11:53PM 51.0108 -30.2606 94° East  Level FlightAware Approximate
11:54PM 51.0016 -30.0381 94° East  Level FlightAware Approximate
11:55PM 50.9896 -29.8161 95° East  Level FlightAware Approximate
11:56PM 50.9767 -29.5942 95° East  Level FlightAware Approximate
11:57PM 50.9634 -29.3725 95° East  Level FlightAware Approximate
11:58PM 50.9496 -29.1509 96° East  Level FlightAware Approximate
11:59PM 50.9355 -28.9294 96° East  Level FlightAware Approximate
12:00AM 50.9209 -28.7080 96° East  Level FlightAware Approximate
12:01AM 50.9059 -28.4869 96° East  Level FlightAware Approximate
12:02AM 50.8905 -28.2658 96° East  Level FlightAware Approximate
12:03AM 50.8746 -28.0449 96° East  Level FlightAware Approximate
12:04AM 50.8584 -27.8242 97° East  Level FlightAware Approximate
12:05AM 50.8417 -27.6036 97° East  Level FlightAware Approximate
12:06AM 50.8246 -27.3831 97° East  Level FlightAware Approximate
12:07AM 50.8071 -27.1629 97° East  Level FlightAware Approximate
12:08AM 50.7892 -26.9428 97° East  Level FlightAware Approximate
12:09AM 50.7709 -26.7228 97° East  Level FlightAware Approximate
12:10AM 50.7522 -26.5031 98° East  Level FlightAware Approximate
12:11AM 50.7330 -26.2835 98° East  Level FlightAware Approximate
12:12AM 50.7135 -26.0641 98° East  Level FlightAware Approximate
12:13AM 50.6935 -25.8449 98° East  Level FlightAware Approximate
12:14AM 50.6731 -25.6259 98° East  Level FlightAware Approximate
12:15AM 50.6523 -25.4070 98° East  Level FlightAware Approximate
12:16AM 50.6311 -25.1884 99° East  Level FlightAware Approximate
12:17AM 50.6095 -24.9699 99° East  Level FlightAware Approximate
12:18AM 50.5874 -24.7517 99° East  Level FlightAware Approximate
12:19AM 50.5650 -24.5337 99° East  Level FlightAware Approximate
12:20AM 50.5422 -24.3158 99° East  Level FlightAware Approximate
12:21AM 50.5189 -24.0982 99° East  Level FlightAware Approximate
12:22AM 50.4953 -23.8808 100° East  Level FlightAware Approximate
12:23AM 50.4712 -23.6637 100° East  Level FlightAware Approximate
12:24AM 50.4468 -23.4467 100° East  Level FlightAware Approximate
12:25AM 50.4219 -23.2300 100° East  Level FlightAware Approximate
12:26AM 50.3966 -23.0135 100° East  Level FlightAware Approximate
12:27AM 50.3710 -22.7972 100° East  Level FlightAware Approximate
12:28AM 50.3449 -22.5812 101° East  Level FlightAware Approximate
12:29AM 50.3185 -22.3654 101° East  Level FlightAware Approximate
12:30AM 50.2916 -22.1499 101° East  Level FlightAware Approximate
12:31AM 50.2644 -21.9346 101° East  Level FlightAware Approximate
12:32AM 50.2367 -21.7195 101° East  Level FlightAware Approximate
12:33AM 50.2086 -21.5047 101° East  Level FlightAware Approximate
12:34AM 50.1802 -21.2902 102° East  Level FlightAware Approximate
12:35AM 50.1513 -21.0759 102° East  Level FlightAware Approximate
12:36AM 50.1221 -20.8619 102° East  Level FlightAware Approximate
12:37AM 50.0925 -20.6481 102° East  Level FlightAware Approximate
12:38AM 50.0624 -20.4346 102° East  Level FlightAware Approximate
12:39AM 50.0320 -20.2213 102° East  Level FlightAware Approximate
12:40AM 50.0012 -20.0084 103° East  Level FlightAware Approximate
12:41AM 49.9337 -19.8176 119° Southeast  Level FlightAware Approximate
12:42AM 49.8643 -19.6284 120° Southeast  Level FlightAware Approximate
12:43AM 49.7946 -19.4396 120° Southeast  Level FlightAware Approximate
12:44AM 49.7247 -19.2514 120° Southeast  Level FlightAware Approximate
12:45AM 49.6544 -19.0638 120° Southeast  Level FlightAware Approximate
12:46AM 49.5838 -18.8767 120° Southeast  Level FlightAware Approximate
12:47AM 49.5129 -18.6902 121° Southeast  Level FlightAware Approximate
12:48AM 49.4411 -18.5047 121° Southeast  Level FlightAware Approximate
12:49AM 49.3691 -18.3197 121° Southeast  Level FlightAware Approximate
12:50AM 49.2967 -18.1353 121° Southeast  Level FlightAware Approximate
12:51AM 49.2241 -17.9515 121° Southeast  Level FlightAware Approximate
12:52AM 49.1512 -17.7682 121° Southeast  Level FlightAware Approximate
12:53AM 49.0779 -17.5854 121° Southeast  Level FlightAware Approximate
12:54AM 49.0046 -17.4030 121° Southeast  Level FlightAware Approximate
12:55AM 48.9314 -17.2207 121° Southeast  Level FlightAware Approximate
12:56AM 48.8581 -17.0389 121° Southeast  Level FlightAware Approximate
12:57AM 48.7844 -16.8576 122° Southeast  Level FlightAware Approximate
12:58AM 48.7104 -16.6768 122° Southeast  Level FlightAware Approximate
12:59AM 48.6362 -16.4966 122° Southeast  Level FlightAware Approximate
01:00AM 48.5616 -16.3169 122° Southeast  Level FlightAware Approximate
01:01AM 48.4868 -16.1378 122° Southeast  Level FlightAware Approximate
01:02AM 48.4118 -15.9591 122° Southeast  Level FlightAware Approximate
01:03AM 48.3364 -15.7810 122° Southeast  Level FlightAware Approximate
01:04AM 48.2608 -15.6035 123° Southeast  Level FlightAware Approximate
01:05AM 48.1849 -15.4264 123° Southeast  Level FlightAware Approximate
01:06AM 48.1087 -15.2499 123° Southeast  Level FlightAware Approximate
01:07AM 48.0322 -15.0739 123° Southeast  Level FlightAware Approximate
01:08AM 47.9547 -14.9008 124° Southeast  Level FlightAware Approximate
01:09AM 47.8760 -14.7291 124° Southeast  Level FlightAware Approximate
01:10AM 47.7971 -14.5580 124° Southeast  Level FlightAware Approximate
01:11AM 47.7178 -14.3873 125° Southeast  Level FlightAware Approximate
01:12AM 47.6384 -14.2172 125° Southeast  Level FlightAware Approximate
01:13AM 47.5590 -14.0473 124° Southeast  Level FlightAware Approximate
01:14AM 47.4801 -13.8772 124° Southeast  Level FlightAware Approximate
01:15AM 47.4009 -13.7075 125° Southeast  Level FlightAware Approximate
01:16AM 47.3215 -13.5384 125° Southeast  Level FlightAware Approximate
01:17AM 47.2418 -13.3698 125° Southeast  Level FlightAware Approximate
01:18AM 47.1619 -13.2016 125° Southeast  Level FlightAware Approximate
01:19AM 47.0817 -13.0340 125° Southeast  Level FlightAware Approximate
01:20AM 47.0014 -12.8669 125° Southeast  Level FlightAware Approximate
01:21AM 46.9207 -12.7003 125° Southeast  Level FlightAware Approximate
01:22AM 46.8398 -12.5342 125° Southeast  Level FlightAware Approximate
01:23AM 46.7587 -12.3686 126° Southeast  Level FlightAware Approximate
01:24AM 46.6773 -12.2035 126° Southeast  Level FlightAware Approximate
01:25AM 46.5957 -12.0389 126° Southeast  Level FlightAware Approximate
01:26AM 46.5139 -11.8748 126° Southeast  Level FlightAware Approximate
01:27AM 46.4318 -11.7112 126° Southeast  Level FlightAware Approximate
01:28AM 46.3495 -11.5481 126° Southeast  Level FlightAware Approximate
01:29AM 46.2670 -11.3854 126° Southeast  Level FlightAware Approximate
01:30AM 46.1842 -11.2233 126° Southeast  Level FlightAware Approximate
01:30AM 45.9040 -10.6880 126° Southeast 486 559 39,000  Level FlightAware
01:31AM 46.1012 -11.0617 126° Southeast  Level FlightAware Approximate
01:31AM 45.8330 -10.5500 126° Southeast 485 558 39,000  Level FlightAware
01:33AM 45.7150 -10.3260 127° Southeast 486 559 39,000  Level FlightAware
01:33AM 45.6610 -10.2240 127° Southeast 485 558 39,000  Level FlightAware
01:34AM 45.6030 -10.1140 127° Southeast 483 556 39,000  Level FlightAware
01:35AM 45.5560 -10.0270 128° Southeast 482 555 39,000  Level FlightAware
01:36AM 45.4890 -9.9000 127° Southeast 483 556 39,000  Level FlightAware
01:36AM 45.4320 -9.7950 128° Southeast 483 556 39,000  Level FlightAware
01:37AM 45.3850 -9.7070 127° Southeast 485 558 39,000  Level FlightAware
01:38AM 45.2620 -9.4780 127° Southeast 482 555 39,000  Level FlightAware
01:39AM 45.2160 -9.3940 128° Southeast 480 552 39,000  Level FlightAware
01:40AM 45.1370 -9.2480 127° Southeast 481 554 39,000  Level FlightAware
01:41AM 45.0950 -9.1720 128° Southeast 483 556 39,000  Level FlightAware
01:41AM 45.0290 -9.0530 128° Southeast 484 557 39,000  Level FlightAware
01:42AM 44.9590 -8.9140 125° Southeast 484 557 39,000  Level FlightAware
01:43AM 44.9240 -8.8340 122° Southeast 486 559 39,000  Level FlightAware
01:44AM 44.8590 -8.6940 123° Southeast 488 562 39,000  Level FlightAware
01:44AM 44.8080 -8.5830 123° Southeast 490 564 39,000  Level FlightAware
01:45AM 44.7570 -8.4730 123° Southeast 489 563 39,000 420 Level FlightAware
01:46AM 44.6470 -8.2390 123° Southeast 472 543 40,000 420 Climbing FlightAware
01:47AM 44.5980 -8.1340 123° Southeast 474 545 40,000  Level FlightAware
01:48AM 44.4980 -7.9230 124° Southeast 472 543 40,000  Level FlightAware
01:49AM 44.4500 -7.8210 123° Southeast 471 542 40,000  Level FlightAware
01:50AM 44.3970 -7.7110 124° Southeast 472 543 40,000  Level FlightAware
01:50AM 44.3480 -7.6100 124° Southeast 472 543 40,000  Level FlightAware
01:51AM 44.2950 -7.4990 124° Southeast 472 543 40,000  Level FlightAware
01:52AM 44.2460 -7.3990 124° Southeast 472 543 40,000  Level FlightAware
01:53AM 44.1900 -7.2810 123° Southeast 474 545 40,000  Level FlightAware
01:53AM 44.1380 -7.1760 125° Southeast 473 544 40,000  Level FlightAware
01:54AM 44.0870 -7.0700 124° Southeast 473 544 40,000  Level FlightAware
01:55AM 44.0380 -6.9700 124° Southeast 473 544 40,000  Level FlightAware
01:55AM 43.9850 -6.8620 124° Southeast 474 545 40,000  Level FlightAware
01:56AM 43.9340 -6.7600 125° Southeast 476 548 40,000  Level FlightAware
01:57AM 43.8810 -6.6520 124° Southeast 476 548 40,000  Level FlightAware
01:58AM 43.7620 -6.4150 125° Southeast 476 548 40,000  Level FlightAware
01:59AM 43.7060 -6.3020 124° Southeast 474 545 40,000  Level FlightAware
02:00AM 43.6530 -6.1960 125° Southeast 474 545 40,000  Level FlightAware
02:01AM 43.6050 -6.0910 122° Southeast 461 531 40,000  Level FlightAware
02:01AM 43.5690 -5.9710 112° Southeast 446 513 40,000  Level FlightAware
02:02AM 43.5490 -5.8630 104° East 436 502 40,000  Level FlightAware
02:03AM 43.5390 -5.7450 97° East 428 493 40,000  Level FlightAware
02:03AM 43.5320 -5.6410 95° East 427 491 40,000  Level FlightAware
02:06AM 43.4339 -5.2462 109° East  Level Estimated
02:06AM 43.4950 -5.1460 109° East 427 491 40,000  Level FlightAware
02:07AM 43.4860 -5.0250 96° East 427 491 40,000  Level FlightAware
02:08AM 43.4770 -4.9190 97° East 426 490 40,000  Level FlightAware
02:08AM 43.4690 -4.8100 96° East 426 490 40,000  Level FlightAware
02:09AM 43.4590 -4.6900 97° East 425 489 40,000  Level FlightAware
02:10AM 43.4500 -4.5810 96° East 426 490 40,000  Level FlightAware
02:11AM 43.4410 -4.4650 96° East 426 490 40,000  Level FlightAware
02:11AM 43.4310 -4.3530 97° East 426 490 40,000  Level FlightAware
02:12AM 43.4230 -4.2460 96° East 428 493 40,000  Level FlightAware
02:13AM 43.4120 -4.1270 97° East 428 493 40,000  Level FlightAware
02:13AM 43.4030 -4.0220 97° East 424 488 40,000  Level FlightAware
02:14AM 43.3940 -3.9120 96° East 423 487 40,000  Level FlightAware
02:15AM 43.3840 -3.7960 97° East 423 487 40,000  Level FlightAware
02:15AM 43.3750 -3.7030 98° East 423 487 40,000  Level FlightAware
02:16AM 43.3660 -3.5960 97° East 423 487 40,000  Level FlightAware
02:17AM 43.3510 -3.4350 97° East 426 490 40,000  Level FlightAware
02:18AM 43.3420 -3.3350 97° East 426 490 40,000  Level FlightAware
02:19AM 43.3290 -3.1950 97° East 430 495 40,000  Level FlightAware
02:19AM 43.3200 -3.1050 98° East 436 502 40,000  Level FlightAware
02:20AM 43.2980 -2.9740 103° East 454 522 40,000  Level FlightAware
02:21AM 43.2620 -2.8520 112° Southeast 472 543 40,000  Level FlightAware
02:21AM 43.2250 -2.7650 120° Southeast 484 557 40,000  Level FlightAware
02:22AM 43.1660 -2.6330 121° Southeast 480 552 40,000  Level FlightAware
02:23AM 43.1180 -2.5280 122° Southeast 481 554 40,000 -180 Level FlightAware
02:23AM 43.0660 -2.4150 122° Southeast 484 557 39,800 -900 Descending FlightAware
02:24AM 43.0170 -2.3080 122° Southeast 471 542 38,800 -1,200 Descending FlightAware
02:25AM 42.9740 -2.2160 123° Southeast 467 537 38,100 -600 Descending FlightAware
02:26AM 42.9220 -2.1030 122° Southeast 475 547 38,000 -120 Descending FlightAware
02:26AM 42.8730 -1.9970 122° Southeast 480 552 38,000  Level FlightAware
02:27AM 42.8110 -1.8660 123° Southeast 479 551 38,000  Level FlightAware
02:28AM 42.7490 -1.7340 123° Southeast 478 550 38,000  Level FlightAware
02:29AM 42.7090 -1.6340 119° Southeast 466 536 38,000  Level FlightAware
02:29AM 42.6680 -1.5150 115° Southeast 470 541 38,000  Level FlightAware
02:30AM 42.6300 -1.4080 116° Southeast 475 547 38,000  Level FlightAware
02:31AM 42.5950 -1.3090 116° Southeast 478 550 38,000 -240 Level FlightAware
02:31AM 42.5500 -1.1810 115° Southeast 482 555 37,700 -720 Descending FlightAware
02:32AM 42.5080 -1.0640 116° Southeast 473 544 37,000 -1,020 Descending FlightAware
02:33AM 42.4700 -0.9580 116° Southeast 470 541 36,400 -1,020 Descending FlightAware
02:33AM 42.4280 -0.8420 116° Southeast 470 541 35,600 -1,020 Descending FlightAware
02:34AM 42.3900 -0.7350 116° Southeast 472 543 35,000 -1,020 Descending FlightAware
02:35AM 42.3460 -0.6140 116° Southeast 476 548 34,200 -1,020 Descending FlightAware
02:36AM 42.3080 -0.5100 116° Southeast 478 550 33,600 -900 Descending FlightAware
02:36AM 42.2690 -0.4030 116° Southeast 484 557 33,000 -1,020 Descending FlightAware
02:37AM 42.2210 -0.2750 117° Southeast 482 555 32,200 -1,080 Descending FlightAware
02:38AM 42.1820 -0.1660 116° Southeast 490 564 31,500 -1,020 Descending FlightAware
02:38AM 42.1410 -0.0580 117° Southeast 482 555 30,900 -960 Descending FlightAware
02:39AM 42.0970 0.0610 116° Southeast 478 550 30,200 -1,020 Descending FlightAware
02:40AM 42.0580 0.1650 117° Southeast 476 548 29,500 -1,080 Descending FlightAware
02:40AM 42.0120 0.2870 117° Southeast 466 536 28,700 -1,200 Descending FlightAware
02:41AM 41.9770 0.3880 115° Southeast 461 531 27,800 -1,620 Descending FlightAware
02:42AM 41.9490 0.4940 110° East 454 522 26,600 -1,860 Descending FlightAware
02:43AM 41.9190 0.6110 109° East 440 506 25,200 -2,880 Descending FlightAware
02:43AM 41.8870 0.7340 109° East 442 509 22,300 -2,280 Descending FlightAware
02:44AM 41.8550 0.8590 109° East 423 487 21,400 -600 Descending FlightAware
02:45AM 41.8330 0.9430 109° East 423 487 21,400  Level FlightAware
02:46AM 41.8110 1.0270 109° East 423 487 21,400  Level FlightAware
02:46AM 41.7900 1.1120 108° East 423 487 21,400  Level FlightAware
02:47AM 41.7680 1.1960 109° East 423 487 21,400 -3,480 Level FlightAware
02:48AM 41.7310 1.3270 111° Southeast 14,200 -4,800 Descending FlightAware
02:49AM 41.6950 1.4640 109° East 383 441 13,100 -660 Descending FlightAware
02:49AM 41.6760 1.5400 108° East 383 441 13,100  Level FlightAware
02:50AM 41.6560 1.6160 109° East 383 441 13,100 -1,440 Level FlightAware
02:53AM 41.3971 1.9504 136° Southeast  Level Estimated
02:54AM 41.2971 2.0785 136° Southeast  Level Estimated
02:55AM 41.2971 2.0785 124° Southeast  Level Estimated
02:55AM 41.5130 2.1420 124° Southeast 238 274 4,800  Level FlightAware
02:56AM 41.5040 2.1790 108° East 236 272 3,900 -1,560 Descending FlightAware
02:56AM 41.4900 2.2160 117° Southeast 234 269 3,400 -600 Descending FlightAware
02:57AM 41.4740 2.2460 125° Southeast 228 262 3,400  Level FlightAware
02:57AM 41.4540 2.2740 134° Southeast 203 234 3,400  Level FlightAware
02:57AM 41.4440 2.2880 134° Southeast 203 234 3,400 -900 Level FlightAware
02:58AM 41.4270 2.3080 139° Southeast 202 232 2,800 -1,380 Descending FlightAware
02:58AM 41.4170 2.3110 167° South 199 229 2,600 -1,020 Descending FlightAware
02:58AM 41.4000 2.3030 199° South 194 223 2,300 -720 Descending FlightAware
02:58AM 41.3880 2.2940 209° Southwest 198 228 2,200 -240 Descending FlightAware
02:59AM 41.3760 2.2860 207° Southwest 195 224 2,200  Level FlightAware
02:59AM 41.3610 2.2660 225° Southwest 179 206 2,200  Level FlightAware
03:00AM 41.3530 2.2430 245° Southwest 165 190 2,200 -480 Level FlightAware
03:00AM 41.3470 2.2250 246° West 169 194 1,900 -900 Descending FlightAware
03:00AM 41.3400 2.2040 246° West 158 182 1,600 -900 Descending FlightAware
03:01AM 41.3310 2.1780 245° Southwest 148 170 1,100 -960 Descending FlightAware
03:01AM 41.3270 2.1650 248° West 137 158 900 -720 Descending FlightAware
03:01AM 41.3190 2.1420 245° Southwest 141 162 600 -720 Descending FlightAware
03:02AM 41.3150 2.1310 244° Southwest 136 157 400 -780 Descending FlightAware
03:02AM 41.3080 2.1120 244° Southwest 133 153 100 -720 Descending FlightAware
03:03AM 41.3010 2.0910 246° West 134 154 -240 Descending FlightAware